createdAt,value
2018-12-10T00:03:52.172Z,997.24
2018-12-10T00:13:52.229Z,997.45
2018-12-10T00:23:52.193Z,997.49
2018-12-10T00:33:52.182Z,997.52
2018-12-10T00:43:52.242Z,997.74
2018-12-10T00:53:52.229Z,997.85
2018-12-10T01:03:52.256Z,998.02
2018-12-10T01:13:52.242Z,998.27
2018-12-10T01:23:52.274Z,998.41
2018-12-10T01:33:52.190Z,998.48
2018-12-10T01:43:52.238Z,998.64
2018-12-10T01:53:52.265Z,998.75
2018-12-10T02:03:52.189Z,998.80
2018-12-10T02:13:52.196Z,998.92
2018-12-10T02:23:52.169Z,998.91
2018-12-10T02:33:52.143Z,999.05
2018-12-10T02:43:52.261Z,999.00
2018-12-10T02:53:52.231Z,998.90
2018-12-10T03:03:52.145Z,999.12
2018-12-10T03:13:52.162Z,999.05
2018-12-10T03:23:52.244Z,999.13
2018-12-10T03:33:52.220Z,999.17
2018-12-10T03:43:52.195Z,999.24
2018-12-10T03:53:52.139Z,999.29
2018-12-10T04:03:52.164Z,999.43
2018-12-10T04:13:52.207Z,999.60
2018-12-10T04:23:52.216Z,999.69
2018-12-10T04:33:53.009Z,999.72
2018-12-10T04:43:52.155Z,999.81
2018-12-10T04:53:52.209Z,999.98
2018-12-10T05:03:52.165Z,1000.32
2018-12-10T05:13:52.277Z,1000.17
2018-12-10T05:23:52.435Z,1000.30
2018-12-10T05:33:52.245Z,1000.34
2018-12-10T05:43:53.303Z,1000.36
2018-12-10T05:53:52.159Z,1000.76
2018-12-10T06:03:52.136Z,1000.53
2018-12-10T06:13:52.212Z,1000.63
2018-12-10T06:23:52.134Z,1000.68
2018-12-10T06:33:52.106Z,1000.74
2018-12-10T06:43:52.042Z,1000.84
2018-12-10T06:53:52.152Z,1001.04
2018-12-10T07:03:52.068Z,1001.16
2018-12-10T07:13:52.066Z,1001.13
2018-12-10T07:23:52.064Z,1001.14
2018-12-10T07:33:52.231Z,1001.30
2018-12-10T07:43:52.123Z,1001.42
2018-12-10T07:53:52.010Z,1001.62
2018-12-10T08:03:52.165Z,1001.77
2018-12-10T08:13:52.138Z,1001.92
2018-12-10T08:23:52.414Z,1001.86
2018-12-10T08:33:52.280Z,1001.99
2018-12-10T08:43:53.065Z,1001.98
2018-12-10T08:53:52.163Z,1002.04
2018-12-10T09:03:52.177Z,1002.13
2018-12-10T09:13:52.113Z,1002.13
2018-12-10T09:23:53.034Z,1002.21
2018-12-10T09:33:52.244Z,1002.31
2018-12-10T09:43:52.134Z,1002.25
2018-12-10T09:53:52.060Z,1002.29
2018-12-10T10:03:52.108Z,1002.28
2018-12-10T10:13:52.261Z,1002.42
2018-12-10T10:23:52.151Z,1002.45
2018-12-10T10:33:52.103Z,1002.40
2018-12-10T10:43:52.110Z,1002.35
2018-12-10T10:53:52.124Z,1002.37
2018-12-10T11:03:52.131Z,1002.29
2018-12-10T11:13:52.118Z,1002.15
2018-12-10T11:23:52.233Z,1002.14
2018-12-10T11:33:52.130Z,1002.03
2018-12-10T11:43:52.118Z,1002.05
2018-12-10T11:53:52.131Z,1001.94
2018-12-10T12:03:52.138Z,1001.98
2018-12-10T12:13:52.086Z,1001.79
2018-12-10T12:23:52.214Z,1001.66
2018-12-10T12:33:52.070Z,1001.66
2018-12-10T12:43:52.105Z,1001.74
2018-12-10T12:53:53.142Z,1001.58
2018-12-10T13:03:54.604Z,1001.63
2018-12-10T13:13:52.115Z,1001.59
2018-12-10T13:23:52.107Z,1001.49
2018-12-10T13:33:52.140Z,1001.50
2018-12-10T13:43:53.081Z,1001.51
2018-12-10T13:53:51.940Z,1002.21
2018-12-10T14:03:52.963Z,1002.27
2018-12-10T14:13:52.050Z,1002.26
2018-12-10T14:23:52.204Z,1002.30
2018-12-10T14:33:52.227Z,1002.23
2018-12-10T14:43:52.114Z,1002.41
2018-12-10T14:53:52.078Z,1002.43
2018-12-10T15:03:52.077Z,1002.50
2018-12-10T15:13:52.123Z,1002.59
2018-12-10T15:23:52.105Z,1002.61
2018-12-10T15:33:52.028Z,1002.81
2018-12-10T15:43:52.187Z,1002.74
2018-12-10T15:53:52.058Z,1002.77
2018-12-10T16:03:52.205Z,1002.91
2018-12-10T16:13:52.011Z,1002.96
2018-12-10T16:23:52.060Z,1003.06
2018-12-10T16:33:52.090Z,1003.20
2018-12-10T16:43:52.069Z,1003.31
2018-12-10T16:53:52.056Z,1003.39
2018-12-10T17:03:52.091Z,1003.41
2018-12-10T17:13:52.039Z,1003.41
2018-12-10T17:23:52.150Z,1003.42
2018-12-10T17:33:52.073Z,1003.50
2018-12-10T17:43:51.996Z,1003.53
2018-12-10T17:53:52.010Z,1003.65
2018-12-10T18:03:52.038Z,1003.63
2018-12-10T18:13:52.007Z,1003.79
2018-12-10T18:23:52.075Z,1003.85
2018-12-10T18:33:52.039Z,1003.91
2018-12-10T18:43:52.053Z,1003.82
2018-12-10T18:53:52.060Z,1003.79
2018-12-10T19:03:52.112Z,1003.72
2018-12-10T19:13:52.011Z,1003.76
2018-12-10T19:23:51.989Z,1003.86
2018-12-10T19:33:51.906Z,1003.85
2018-12-10T19:43:52.008Z,1004.01
2018-12-10T19:53:52.065Z,1003.98
2018-12-10T20:03:52.072Z,1003.94
2018-12-10T20:13:52.030Z,1004.03
2018-12-10T20:23:52.020Z,1004.11
2018-12-10T20:33:51.914Z,1004.19
2018-12-10T20:43:51.978Z,1004.20
2018-12-10T20:53:52.221Z,1004.07
2018-12-10T21:03:52.077Z,1004.19
2018-12-10T21:13:52.022Z,1004.15
2018-12-10T21:23:51.907Z,1004.06
2018-12-10T21:33:52.112Z,1004.12
2018-12-10T21:43:51.926Z,1004.10
2018-12-10T21:53:52.017Z,1004.12
2018-12-10T22:03:52.101Z,1004.16
2018-12-10T22:13:52.016Z,1004.05
2018-12-10T22:23:52.008Z,1004.01
2018-12-10T22:33:51.991Z,1003.97
2018-12-10T22:43:52.039Z,1003.99
2018-12-10T22:53:52.001Z,1004.00
2018-12-10T23:03:51.925Z,1004.00
2018-12-10T23:13:52.085Z,1004.09
2018-12-10T23:23:52.055Z,1004.10
2018-12-10T23:33:51.912Z,1004.09
2018-12-10T23:43:51.958Z,1004.25
2018-12-10T23:53:51.951Z,1004.15
